Time;durP1;ratioP1;P1;durP2;ratioP2;P2;SDS_P1;SDS_P2;PMS_P1;PMS_P2;Temp;Humidity;BMP_temperature;BMP_pressure;BME280_temperature;BME280_humidity;BME280_pressure;Samples;Min_cycle;Max_cycle;Signal;HPM_P1;HPM_P2
2023/04/05 00:01:52;;;;;;;2.90;1.63;;;;;;;;;;12696227;23;20105;-81
2023/04/05 00:06:57;;;;;;;2.58;1.60;;;;;;;;;;12695043;23;20033;-81
2023/04/05 00:12:01;;;;;;;2.33;1.60;;;;;;;;;;12695100;23;20430;-81
2023/04/05 00:17:05;;;;;;;1.70;1.42;;;;;;;;;;12722447;23;20363;-81
2023/04/05 00:22:10;;;;;;;2.15;1.42;;;;;;;;;;12696052;23;20064;-81
2023/04/05 00:27:14;;;;;;;3.00;2.05;;;;;;;;;;12698359;23;20043;-81
2023/04/05 00:32:21;;;;;;;2.58;1.77;;;;;;;;;;12697019;23;20552;-81
2023/04/05 00:37:27;;;;;;;1.85;1.50;;;;;;;;;;12698128;23;20533;-81
2023/04/05 00:42:30;;;;;;;2.30;1.50;;;;;;;;;;12701632;23;20014;-81
2023/04/05 00:47:34;;;;;;;1.95;1.52;;;;;;;;;;12702747;23;20026;-82
2023/04/05 00:52:40;;;;;;;2.85;2.08;;;;;;;;;;12701219;23;20088;-82
2023/04/05 00:57:45;;;;;;;3.67;2.38;;;;;;;;;;12700369;23;20051;-84
2023/04/05 01:02:52;;;;;;;4.90;3.08;;;;;;;;;;12702015;23;20045;-86
2023/04/05 01:08:07;;;;;;;4.78;2.20;;;;;;;;;;12702166;23;20572;-83
2023/04/05 01:13:11;;;;;;;3.37;2.00;;;;;;;;;;12726259;23;20021;-84
2023/04/05 01:18:15;;;;;;;2.90;2.00;;;;;;;;;;12725593;23;20033;-81
2023/04/05 01:23:41;;;;;;;2.10;1.70;;;;;;;;;;12725056;23;20044;-81
2023/04/05 01:29:02;;;;;;;1.92;1.67;;;;;;;;;;12695305;23;20033;-81
2023/04/05 01:34:18;;;;;;;2.80;1.90;;;;;;;;;;12701579;23;20076;-81
2023/04/05 01:39:25;;;;;;;4.35;2.42;;;;;;;;;;12741099;23;20029;-83
2023/04/05 01:44:29;;;;;;;2.70;1.75;;;;;;;;;;12729177;23;20034;-85
2023/04/05 01:49:34;;;;;;;2.58;1.77;;;;;;;;;;12709110;23;20037;-81
2023/04/05 01:54:38;;;;;;;3.88;1.88;;;;;;;;;;12708605;23;20037;-84
2023/04/05 01:59:44;;;;;;;3.13;1.60;;;;;;;;;;12700659;23;20029;-83
2023/04/05 02:04:50;;;;;;;2.60;1.80;;;;;;;;;;12697678;23;20537;-87
2023/04/05 02:09:54;;;;;;;5.03;1.80;;;;;;;;;;12697923;23;20056;-84
2023/04/05 02:14:58;;;;;;;3.08;1.85;;;;;;;;;;12696869;23;20606;-83
2023/04/05 02:20:06;;;;;;;3.75;1.90;;;;;;;;;;12696100;23;20176;-81
2023/04/05 02:25:11;;;;;;;3.42;1.73;;;;;;;;;;12696691;23;20664;-83
2023/04/05 02:30:15;;;;;;;2.45;1.45;;;;;;;;;;12696737;23;20061;-83
2023/04/05 02:35:30;;;;;;;2.97;1.92;;;;;;;;;;12695822;23;20026;-84
2023/04/05 02:40:40;;;;;;;3.72;2.10;;;;;;;;;;12697162;23;20025;-81
2023/04/05 02:45:44;;;;;;;2.05;1.60;;;;;;;;;;12697439;23;20507;-81
2023/04/05 02:50:51;;;;;;;1.93;1.13;;;;;;;;;;12723570;23;20033;-81
2023/04/05 02:55:56;;;;;;;2.47;1.60;;;;;;;;;;12698028;23;20630;-81
2023/04/05 03:01:05;;;;;;;2.67;1.58;;;;;;;;;;12724279;23;20018;-83
2023/04/05 03:06:12;;;;;;;3.03;2.03;;;;;;;;;;12729333;23;20573;-87
2023/04/05 03:11:20;;;;;;;3.45;2.10;;;;;;;;;;12696178;23;20022;-83
2023/04/05 03:16:28;;;;;;;2.78;2.47;;;;;;;;;;12696430;23;20104;-83
2023/04/05 03:21:38;;;;;;;5.68;2.10;;;;;;;;;;12697950;23;20109;-83
2023/04/05 03:26:51;;;;;;;2.55;2.05;;;;;;;;;;12699387;23;20025;-84
2023/04/05 03:31:58;;;;;;;4.75;2.05;;;;;;;;;;12700019;23;20022;-83
2023/04/05 03:37:03;;;;;;;4.13;1.77;;;;;;;;;;12725846;23;20336;-84
2023/04/05 03:42:16;;;;;;;3.75;2.00;;;;;;;;;;12701410;23;20022;-83
2023/04/05 03:47:20;;;;;;;2.85;1.80;;;;;;;;;;12701148;23;20522;-83
2023/04/05 03:52:27;;;;;;;2.87;1.80;;;;;;;;;;12701118;23;20466;-83
2023/04/05 03:57:32;;;;;;;;;;;;;;;;;;12702519;23;20025;-84
2023/04/05 04:02:46;;;;;;;3.15;2.20;;;;;;;;;;12703403;23;19955;-85
2023/04/05 04:07:57;;;;;;;2.25;1.70;;;;;;;;;;12714042;23;20075;-84
2023/04/05 04:13:01;;;;;;;1.98;1.67;;;;;;;;;;12704438;23;20026;-83
2023/04/05 04:18:08;;;;;;;2.45;1.52;;;;;;;;;;12698327;23;20096;-82
2023/04/05 04:23:37;;;;;;;1.90;1.60;;;;;;;;;;12703306;23;20095;-80
2023/04/05 04:28:58;;;;;;;4.63;1.75;;;;;;;;;;12700092;23;20248;-81
2023/04/05 04:34:20;;;;;;;2.45;1.70;;;;;;;;;;12700536;23;20082;-82
2023/04/05 04:39:38;;;;;;;2.35;1.50;;;;;;;;;;12701674;23;20022;-82
2023/04/05 04:45:03;;;;;;;1.77;1.67;;;;;;;;;;12734139;23;20025;-83
2023/04/05 04:50:22;;;;;;;1.90;1.70;;;;;;;;;;12714951;23;20029;-83
2023/04/05 04:55:41;;;;;;;3.28;1.98;;;;;;;;;;12710168;23;20067;-82
2023/04/05 05:00:47;;;;;;;5.00;2.58;;;;;;;;;;12702479;23;20604;-83
2023/04/05 05:05:52;;;;;;;2.90;1.92;;;;;;;;;;12653253;23;20522;-87
2023/04/05 05:11:07;;;;;;;3.97;2.40;;;;;;;;;;12693794;23;20035;-83
2023/04/05 05:16:10;;;;;;;3.97;2.50;;;;;;;;;;12694933;23;20025;-85
2023/04/05 05:21:14;;;;;;;6.05;2.80;;;;;;;;;;12726210;23;20072;-85
2023/04/05 05:26:20;;;;;;;4.43;2.70;;;;;;;;;;12708184;23;20372;-85
2023/04/05 05:31:31;;;;;;;8.05;2.88;;;;;;;;;;12711341;23;20014;-84
2023/04/05 05:36:36;;;;;;;4.93;2.70;;;;;;;;;;12696767;23;20021;-90
2023/04/05 05:41:41;;;;;;;5.00;3.10;;;;;;;;;;12728358;23;20018;-86
2023/04/05 05:46:45;;;;;;;5.57;2.70;;;;;;;;;;12699468;23;20032;-84
2023/04/05 05:51:49;;;;;;;3.97;2.53;;;;;;;;;;12691700;23;20028;-84
2023/04/05 05:56:54;;;;;;;3.42;2.47;;;;;;;;;;12718091;23;20025;-84
2023/04/05 06:02:00;;;;;;;5.65;2.47;;;;;;;;;;12686808;23;20026;-84
2023/04/05 06:07:04;;;;;;;4.70;2.80;;;;;;;;;;12687202;23;20033;-84
2023/04/05 06:12:10;;;;;;;4.50;2.72;;;;;;;;;;12714871;23;20026;-84
2023/04/05 06:17:14;;;;;;;3.50;2.67;;;;;;;;;;12690684;23;20111;-83
2023/04/05 06:22:22;;;;;;;5.18;2.90;;;;;;;;;;12690481;23;20056;-84
2023/04/05 06:27:27;;;;;;;6.82;3.28;;;;;;;;;;12690278;23;20534;-84
2023/04/05 06:32:31;;;;;;;4.47;2.53;;;;;;;;;;12690617;23;20021;-85
2023/04/05 06:37:35;;;;;;;3.38;2.40;;;;;;;;;;12688365;23;20435;-84
2023/04/05 06:42:40;;;;;;;4.85;2.60;;;;;;;;;;12690428;23;20356;-84
2023/04/05 06:47:54;;;;;;;3.83;2.33;;;;;;;;;;12694916;23;20028;-84
2023/04/05 06:53:00;;;;;;;1.70;1.60;;;;;;;;;;12697862;23;20029;-85
2023/04/05 06:58:06;;;;;;;3.77;2.00;;;;;;;;;;12723411;23;20029;-84
2023/04/05 07:03:09;;;;;;;2.55;2.00;;;;;;;;;;12695377;23;20467;-84
2023/04/05 07:08:13;;;;;;;3.08;2.20;;;;;;;;;;12717367;23;20025;-85
2023/04/05 07:13:19;;;;;;;3.20;1.80;;;;;;;;;;12719797;23;20032;-85
2023/04/05 07:18:26;;;;;;;2.95;2.15;;;;;;;;;;12735880;23;20395;-85
2023/04/05 07:23:30;;;;;;;3.42;2.20;;;;;;;;;;12737247;23;20704;-87
2023/04/05 07:28:36;;;;;;;3.30;1.98;;;;;;;;;;12698038;23;20025;-88
2023/04/05 07:33:40;;;;;;;2.60;2.00;;;;;;;;;;12698620;23;20113;-87
2023/04/05 07:38:44;;;;;;;2.88;1.80;;;;;;;;;;12734947;23;20703;-86
2023/04/05 07:43:49;;;;;;;3.30;2.35;;;;;;;;;;12693027;23;20033;-85
2023/04/05 07:48:53;;;;;;;4.75;2.72;;;;;;;;;;12692551;23;20036;-86
2023/04/05 07:53:57;;;;;;;2.55;1.90;;;;;;;;;;12692524;23;20109;-85
2023/04/05 07:59:02;;;;;;;2.70;2.03;;;;;;;;;;12718793;23;20522;-85
2023/04/05 08:04:06;;;;;;;6.80;2.25;;;;;;;;;;12693023;23;20040;-84
2023/04/05 08:09:11;;;;;;;3.47;2.28;;;;;;;;;;12693273;23;20051;-84
2023/04/05 08:14:23;;;;;;;1.80;1.58;;;;;;;;;;12692688;23;20029;-84
2023/04/05 08:19:27;;;;;;;3.38;1.73;;;;;;;;;;12694408;23;20037;-86
2023/04/05 08:24:39;;;;;;;3.35;1.92;;;;;;;;;;12697086;23;20129;-86
2023/04/05 08:29:44;;;;;;;2.75;1.65;;;;;;;;;;12695983;23;20032;-86
2023/04/05 08:34:48;;;;;;;4.97;2.40;;;;;;;;;;12696760;23;20018;-86
2023/04/05 08:39:52;;;;;;;3.45;1.63;;;;;;;;;;12732370;23;20029;-86
2023/04/05 08:44:59;;;;;;;2.08;1.38;;;;;;;;;;12695589;23;20548;-86
2023/04/05 08:50:07;;;;;;;2.58;1.60;;;;;;;;;;12696450;23;20467;-86
2023/04/05 08:55:11;;;;;;;4.07;2.30;;;;;;;;;;12695885;23;20017;-87
2023/04/05 09:00:17;;;;;;;2.30;1.60;;;;;;;;;;12693372;23;20074;-87
2023/04/05 09:05:24;;;;;;;2.90;1.60;;;;;;;;;;12695254;23;20025;-87
2023/04/05 09:10:29;;;;;;;4.88;2.10;;;;;;;;;;12696756;23;20351;-89
2023/04/05 09:15:35;;;;;;;1.73;1.55;;;;;;;;;;12698152;23;20104;-86
2023/04/05 09:20:39;;;;;;;4.63;1.50;;;;;;;;;;12731854;23;20032;-86
2023/04/05 09:25:45;;;;;;;2.97;1.73;;;;;;;;;;12732720;23;20268;-86
2023/04/05 09:30:50;;;;;;;2.63;1.95;;;;;;;;;;12704780;23;20029;-86
2023/04/05 09:35:55;;;;;;;2.65;2.00;;;;;;;;;;12708413;23;20026;-86
2023/04/05 09:41:08;;;;;;;2.07;1.73;;;;;;;;;;12704598;23;20025;-86
2023/04/05 09:46:33;;;;;;;1.42;1.20;;;;;;;;;;12701796;23;20036;-85
2023/04/05 09:51:38;;;;;;;1.35;1.25;;;;;;;;;;12702427;23;20033;-85
2023/04/05 09:56:57;;;;;;;1.42;1.10;;;;;;;;;;12702526;23;20569;-85
2023/04/05 10:02:02;;;;;;;2.25;1.17;;;;;;;;;;12730259;23;20032;-86
2023/04/05 10:07:08;;;;;;;2.17;1.27;;;;;;;;;;12692445;23;20017;-83
2023/04/05 10:12:13;;;;;;;;;;;;;;;;;;12691976;23;20530;-82
2023/04/05 10:17:25;;;;;;;1.80;1.00;;;;;;;;;;12692341;23;19916;-84
2023/04/05 10:22:35;;;;;;;1.65;1.00;;;;;;;;;;12690466;23;20026;-84
2023/04/05 10:27:44;;;;;;;2.00;0.90;;;;;;;;;;12691275;23;20101;-83
2023/04/05 10:33:01;;;;;;;1.65;1.30;;;;;;;;;;12690721;23;20081;-84
2023/04/05 10:38:16;;;;;;;2.45;1.30;;;;;;;;;;12736061;23;20033;-83
2023/04/05 10:43:24;;;;;;;1.63;0.97;;;;;;;;;;12693442;23;20359;-83
2023/04/05 10:48:49;;;;;;;1.10;0.90;;;;;;;;;;12692694;23;20018;-84
2023/04/05 10:53:55;;;;;;;2.08;1.60;;;;;;;;;;12720619;23;20026;-84
2023/04/05 10:58:59;;;;;;;2.00;1.23;;;;;;;;;;12694467;23;20044;-84
2023/04/05 11:04:13;;;;;;;1.90;1.60;;;;;;;;;;12692385;23;20033;-84
2023/04/05 11:09:20;;;;;;;2.45;1.42;;;;;;;;;;12693552;23;20021;-84
2023/04/05 11:14:25;;;;;;;1.98;1.27;;;;;;;;;;12693187;23;20105;-84
2023/04/05 11:19:52;;;;;;;2.10;1.50;;;;;;;;;;12693162;23;20101;-84
2023/04/05 11:24:57;;;;;;;1.95;1.52;;;;;;;;;;12728562;23;20041;-84
2023/04/05 11:30:02;;;;;;;1.83;1.17;;;;;;;;;;12692167;23;20080;-83
2023/04/05 11:35:13;;;;;;;1.98;1.25;;;;;;;;;;12697118;23;20026;-87
2023/04/05 11:40:29;;;;;;;3.05;1.13;;;;;;;;;;12697309;23;20109;-88
2023/04/05 11:45:39;;;;;;;2.10;1.45;;;;;;;;;;12698055;23;20022;-87
2023/04/05 11:50:46;;;;;;;2.53;1.17;;;;;;;;;;12697402;23;20511;-86
2023/04/05 11:55:51;;;;;;;1.98;1.20;;;;;;;;;;12698094;23;20635;-86
2023/04/05 12:01:00;;;;;;;1.40;1.10;;;;;;;;;;12699404;23;20025;-85
2023/04/05 12:06:07;;;;;;;2.08;1.40;;;;;;;;;;12701264;23;20096;-85
2023/04/05 12:11:12;;;;;;;1.95;1.17;;;;;;;;;;12701089;23;20026;-87
2023/04/05 12:16:16;;;;;;;4.60;2.40;;;;;;;;;;12704346;23;20530;-86
2023/04/05 12:21:22;;;;;;;2.17;1.70;;;;;;;;;;12708365;23;20040;-87
2023/04/05 12:43:23;;;;;;;3.42;2.47;;;;;;;;;;10440835;28;20643;-87
2023/04/05 12:48:27;;;;;;;2.58;1.35;;;;;;;;;;10432486;28;20414;-86
2023/04/05 12:53:32;;;;;;;4.10;1.60;;;;;;;;;;10420972;28;20043;-87
2023/04/05 12:58:39;;;;;;;4.10;1.17;;;;;;;;;;10418201;28;20317;-87
2023/04/05 13:03:44;;;;;;;1.50;1.08;;;;;;;;;;10423306;28;20488;-89
2023/04/05 13:08:49;;;;;;;1.30;1.20;;;;;;;;;;10411360;28;20183;-87
2023/04/05 13:13:54;;;;;;;1.52;0.95;;;;;;;;;;10404978;28;20457;-88
2023/04/05 13:18:57;;;;;;;1.45;1.30;;;;;;;;;;10420213;28;20538;-88
2023/04/05 13:24:01;;;;;;;1.65;1.27;;;;;;;;;;10424420;28;20045;-87
2023/04/05 13:29:07;;;;;;;2.13;1.10;;;;;;;;;;10411492;28;20128;-87
2023/04/05 13:34:12;;;;;;;1.20;1.10;;;;;;;;;;10400671;28;20045;-87
2023/04/05 13:39:16;;;;;;;1.70;1.27;;;;;;;;;;10406755;28;20045;-87
2023/04/05 13:44:21;;;;;;;3.28;1.80;;;;;;;;;;10384453;28;20050;-87
2023/04/05 13:49:25;;;;;;;1.40;0.95;;;;;;;;;;10374161;28;20096;-87
2023/04/05 13:54:29;;;;;;;1.33;1.20;;;;;;;;;;10381163;28;20120;-87
2023/04/05 13:59:34;;;;;;;1.15;0.85;;;;;;;;;;10372588;28;20029;-87
2023/04/05 14:04:38;;;;;;;1.60;1.05;;;;;;;;;;10365377;28;20041;-87
2023/04/05 14:09:43;;;;;;;2.33;0.88;;;;;;;;;;10389218;28;20129;-88
2023/04/05 14:14:48;;;;;;;1.30;0.77;;;;;;;;;;10382009;28;20042;-88
2023/04/05 14:19:52;;;;;;;2.05;1.27;;;;;;;;;;10375072;28;20080;-87
2023/04/05 14:24:55;;;;;;;1.00;0.90;;;;;;;;;;10380953;28;20038;-87
2023/04/05 14:30:00;;;;;;;1.60;0.77;;;;;;;;;;10381371;28;20034;-88
2023/04/05 14:35:04;;;;;;;2.72;1.10;;;;;;;;;;10384383;28;20037;-87
2023/04/05 14:40:08;;;;;;;1.38;0.98;;;;;;;;;;10380057;28;20497;-87
2023/04/05 14:45:13;;;;;;;1.98;1.50;;;;;;;;;;10374714;28;20162;-87
2023/04/05 14:50:16;;;;;;;2.08;1.00;;;;;;;;;;10384786;28;20038;-87
2023/04/05 14:55:20;;;;;;;1.48;1.10;;;;;;;;;;10387225;28;20135;-87
2023/04/05 15:00:25;;;;;;;1.48;1.00;;;;;;;;;;10376721;28;20045;-88
2023/04/05 15:05:29;;;;;;;1.52;1.00;;;;;;;;;;10383545;28;20096;-87
2023/04/05 15:10:33;;;;;;;2.17;1.17;;;;;;;;;;10371593;28;20037;-87
2023/04/05 15:15:38;;;;;;;2.88;1.42;;;;;;;;;;10370916;28;20865;-88
2023/04/05 15:20:41;;;;;;;1.85;1.05;;;;;;;;;;10379199;28;20095;-88
2023/04/05 15:25:45;;;;;;;2.05;1.00;;;;;;;;;;10378182;28;20128;-89
2023/04/05 15:30:51;;;;;;;1.17;1.08;;;;;;;;;;10372196;28;20455;-87
2023/04/05 15:35:54;;;;;;;1.73;0.77;;;;;;;;;;10366525;28;20050;-87
2023/04/05 15:40:58;;;;;;;1.70;1.27;;;;;;;;;;10371828;28;20052;-90
2023/04/05 15:46:03;;;;;;;1.30;1.20;;;;;;;;;;10379716;28;20375;-90
2023/04/05 15:51:07;;;;;;;1.38;1.02;;;;;;;;;;10375163;28;20045;-89
2023/04/05 15:56:11;;;;;;;2.15;1.05;;;;;;;;;;10375636;28;20042;-89
2023/04/05 16:01:16;;;;;;;1.08;0.80;;;;;;;;;;10388420;28;20076;-90
2023/04/05 16:06:20;;;;;;;1.17;0.80;;;;;;;;;;10380498;28;20050;-89
2023/04/05 16:11:24;;;;;;;1.15;1.00;;;;;;;;;;10388222;28;20546;-87
2023/04/05 16:16:29;;;;;;;1.25;1.13;;;;;;;;;;10377218;28;20038;-89
2023/04/05 16:21:37;;;;;;;1.33;1.00;;;;;;;;;;10363573;28;20038;-89
2023/04/05 16:26:41;;;;;;;2.40;1.10;;;;;;;;;;10377378;28;20042;-87
2023/04/05 16:31:46;;;;;;;0.80;0.73;;;;;;;;;;10382572;28;20040;-89
2023/04/05 16:36:50;;;;;;;1.00;0.87;;;;;;;;;;10367596;28;20053;-88
2023/04/05 16:41:54;;;;;;;2.15;1.10;;;;;;;;;;10380222;28;20467;-90
2023/04/05 16:46:59;;;;;;;1.60;1.20;;;;;;;;;;10373236;28;20077;-89
2023/04/05 16:52:02;;;;;;;1.58;1.20;;;;;;;;;;10386014;28;20061;-87
2023/04/05 16:57:06;;;;;;;1.88;1.30;;;;;;;;;;10373102;28;20145;-90
2023/04/05 17:02:10;;;;;;;3.20;2.10;;;;;;;;;;10370121;28;20038;-89
2023/04/05 17:07:14;;;;;;;3.00;1.85;;;;;;;;;;10372204;28;20045;-89
2023/04/05 17:12:18;;;;;;;2.85;2.05;;;;;;;;;;10377540;28;20051;-89
2023/04/05 17:17:23;;;;;;;2.83;1.70;;;;;;;;;;10383152;28;20103;-89
2023/04/05 17:22:27;;;;;;;1.90;1.30;;;;;;;;;;10389950;28;20073;-89
2023/04/05 17:27:30;;;;;;;1.65;1.30;;;;;;;;;;10373805;28;20140;-88
2023/04/05 17:32:35;;;;;;;2.60;1.50;;;;;;;;;;10375947;28;20088;-91
2023/04/05 17:37:39;;;;;;;1.20;1.10;;;;;;;;;;10369002;28;20049;-89
2023/04/05 17:42:42;;;;;;;3.20;1.42;;;;;;;;;;10387441;28;20054;-88
2023/04/05 17:47:47;;;;;;;1.15;1.05;;;;;;;;;;10384296;28;20097;-90
2023/04/05 17:52:51;;;;;;;1.95;1.33;;;;;;;;;;10382540;28;20042;-89
2023/04/05 17:57:54;;;;;;;2.50;1.40;;;;;;;;;;10380251;28;20064;-87
2023/04/05 18:03:00;;;;;;;2.17;1.83;;;;;;;;;;10384570;28;20239;-90
2023/04/05 18:08:07;;;;;;;5.32;2.60;;;;;;;;;;10367939;28;20053;-89
2023/04/05 18:13:10;;;;;;;3.65;2.00;;;;;;;;;;10373618;28;20135;-88
2023/04/05 18:18:15;;;;;;;3.15;2.10;;;;;;;;;;10374407;28;20069;-87
2023/04/05 18:23:21;;;;;;;5.18;2.58;;;;;;;;;;10390942;28;20160;-88
2023/04/05 18:28:25;;;;;;;7.03;4.13;;;;;;;;;;10371248;28;20077;-90
2023/04/05 18:33:29;;;;;;;17.58;8.13;;;;;;;;;;10385375;28;20121;-89
2023/04/05 18:38:33;;;;;;;11.82;6.35;;;;;;;;;;10377821;28;20046;-90
2023/04/05 18:43:36;;;;;;;8.90;4.30;;;;;;;;;;10386103;28;20503;-87
2023/04/05 18:48:41;;;;;;;7.03;3.60;;;;;;;;;;10390065;28;20034;-87
2023/04/05 18:53:45;;;;;;;5.72;3.35;;;;;;;;;;10381766;28;20042;-89
2023/04/05 18:58:49;;;;;;;6.38;3.88;;;;;;;;;;10378143;28;20356;-90
2023/04/05 19:03:54;;;;;;;8.05;4.85;;;;;;;;;;10377965;28;20408;-90
2023/04/05 19:08:58;;;;;;;6.25;3.63;;;;;;;;;;10373208;28;20042;-88
2023/04/05 19:14:02;;;;;;;8.05;4.35;;;;;;;;;;10395572;28;20132;-90
2023/04/05 19:19:07;;;;;;;7.63;5.10;;;;;;;;;;10372190;28;20261;-89
2023/04/05 19:24:13;;;;;;;7.20;4.55;;;;;;;;;;10374422;28;20060;-90
2023/04/05 19:29:17;;;;;;;9.93;5.47;;;;;;;;;;10370149;28;20042;-89
2023/04/05 19:34:22;;;;;;;7.80;4.70;;;;;;;;;;10379708;28;20050;-88
2023/04/05 19:39:26;;;;;;;7.22;4.45;;;;;;;;;;10368705;28;20132;-88
2023/04/05 19:44:43;;;;;;;7.97;4.60;;;;;;;;;;10384355;28;20277;-89
2023/04/05 19:49:48;;;;;;;7.97;4.22;;;;;;;;;;10372169;28;20038;-90
2023/04/05 19:54:52;;;;;;;4.97;3.40;;;;;;;;;;10372003;28;20065;-90
2023/04/05 19:59:56;;;;;;;5.82;3.80;;;;;;;;;;10365154;28;20104;-90
2023/04/05 20:05:00;;;;;;;6.38;3.92;;;;;;;;;;10371264;28;20124;-89
2023/04/05 20:10:15;;;;;;;5.93;2.50;;;;;;;;;;10370272;28;20041;-88
2023/04/05 20:15:34;;;;;;;3.10;2.03;;;;;;;;;;10387853;28;20324;-88
2023/04/05 20:20:42;;;;;;;3.42;2.45;;;;;;;;;;10366595;28;20104;-89
2023/04/05 20:25:46;;;;;;;4.43;2.50;;;;;;;;;;10378474;28;20045;-89
2023/04/05 20:30:49;;;;;;;6.15;3.42;;;;;;;;;;10376288;28;20362;-89
2023/04/05 20:35:54;;;;;;;4.32;3.10;;;;;;;;;;10373747;28;20038;-89
2023/04/05 20:40:58;;;;;;;4.15;2.88;;;;;;;;;;10379171;28;20057;-85
2023/04/05 20:46:02;;;;;;;5.45;2.78;;;;;;;;;;10367426;28;20578;-85
2023/04/05 20:51:08;;;;;;;4.22;2.70;;;;;;;;;;10372306;28;20045;-86
2023/04/05 20:56:12;;;;;;;5.10;3.20;;;;;;;;;;10389287;28;20045;-86
2023/04/05 21:01:16;;;;;;;4.72;2.95;;;;;;;;;;10377986;28;20060;-84
2023/04/05 21:06:21;;;;;;;3.25;2.53;;;;;;;;;;10372595;28;20042;-85
2023/04/05 21:11:25;;;;;;;4.43;2.90;;;;;;;;;;10376401;28;20050;-85
2023/04/05 21:16:28;;;;;;;4.43;2.63;;;;;;;;;;10370811;28;20048;-84
2023/04/05 21:21:34;;;;;;;4.97;3.15;;;;;;;;;;10372653;28;20634;-83
2023/04/05 21:26:37;;;;;;;4.97;3.13;;;;;;;;;;10371741;28;20136;-86
2023/04/05 21:31:40;;;;;;;5.38;2.30;;;;;;;;;;10408950;28;20059;-85
2023/04/05 21:36:45;;;;;;;5.75;3.30;;;;;;;;;;10379163;28;20041;-85
2023/04/05 21:41:49;;;;;;;5.85;2.70;;;;;;;;;;10372915;28;20038;-85
2023/04/05 21:46:52;;;;;;;5.72;2.50;;;;;;;;;;10371549;28;20572;-85
2023/04/05 21:51:57;;;;;;;3.40;2.83;;;;;;;;;;10372086;28;20100;-84
2023/04/05 21:57:01;;;;;;;4.28;2.75;;;;;;;;;;10381031;28;20046;-88
2023/04/05 22:02:05;;;;;;;4.75;3.35;;;;;;;;;;10376381;28;20559;-90
2023/04/05 22:07:11;;;;;;;3.95;2.85;;;;;;;;;;10377182;28;20725;-87
2023/04/05 22:12:15;;;;;;;3.13;2.28;;;;;;;;;;10408697;28;20057;-87
2023/04/05 22:17:19;;;;;;;4.25;2.88;;;;;;;;;;10375655;28;20514;-88
2023/04/05 22:22:24;;;;;;;5.55;3.28;;;;;;;;;;10375982;28;20050;-88
2023/04/05 22:27:28;;;;;;;8.32;4.53;;;;;;;;;;10374145;28;20104;-90
2023/04/05 22:32:32;;;;;;;7.45;3.67;;;;;;;;;;10374387;28;20066;-89
2023/04/05 22:37:39;;;;;;;9.95;4.43;;;;;;;;;;10374652;28;20096;-87
2023/04/05 22:42:42;;;;;;;7.90;4.63;;;;;;;;;;10373267;28;20557;-91
2023/04/05 22:47:46;;;;;;;8.50;4.97;;;;;;;;;;10406427;28;20495;-87
2023/04/05 22:52:51;;;;;;;13.23;5.95;;;;;;;;;;10373483;28;20107;-88
2023/04/05 22:57:54;;;;;;;13.45;6.05;;;;;;;;;;10405739;28;20514;-89
2023/04/05 23:02:58;;;;;;;9.38;4.78;;;;;;;;;;10373667;28;20118;-88
2023/04/05 23:08:04;;;;;;;7.63;4.32;;;;;;;;;;10374314;28;20034;-88
2023/04/05 23:13:10;;;;;;;8.70;5.00;;;;;;;;;;10405127;28;20046;-88
2023/04/05 23:18:19;;;;;;;5.78;3.50;;;;;;;;;;10372313;28;20503;-90
2023/04/05 23:23:25;;;;;;;5.78;3.65;;;;;;;;;;10371817;28;20042;-91
2023/04/05 23:28:28;;;;;;;6.47;4.00;;;;;;;;;;10371741;28;20080;-88
2023/04/05 23:33:31;;;;;;;3.97;2.92;;;;;;;;;;10404407;28;20062;-88
2023/04/05 23:38:36;;;;;;;3.92;2.65;;;;;;;;;;10405540;28;20214;-87
2023/04/05 23:43:40;;;;;;;5.30;2.92;;;;;;;;;;10372933;28;20042;-88
2023/04/05 23:48:44;;;;;;;3.53;2.25;;;;;;;;;;10371165;28;20112;-90
2023/04/05 23:53:48;;;;;;;6.00;3.75;;;;;;;;;;10370936;28;20122;-87
2023/04/05 23:58:52;;;;;;;4.32;3.10;;;;;;;;;;10372653;28;20050;-90
